createdAt,value
2023-01-18T00:02:55.692Z,0.47
2023-01-18T00:12:58.977Z,0.27
2023-01-18T00:23:01.918Z,0.62
2023-01-18T00:33:04.186Z,0.82
2023-01-18T00:43:24.899Z,0.68
2023-01-18T00:53:27.307Z,0.47
2023-01-18T01:03:50.410Z,-0.10
2023-01-18T01:14:11.127Z,0.39
2023-01-18T01:24:32.083Z,-0.18
2023-01-18T01:34:34.258Z,0.19
2023-01-18T01:45:02.790Z,0.11
2023-01-18T01:55:13.777Z,-0.32
2023-01-18T02:05:17.495Z,-0.13
2023-01-18T02:15:21.914Z,-0.41
2023-01-18T02:25:59.309Z,0.03
2023-01-18T02:36:02.851Z,-0.16
2023-01-18T02:46:25.336Z,-0.56
2023-01-18T02:56:41.559Z,-0.51
2023-01-18T03:06:49.265Z,-0.41
2023-01-18T03:17:04.756Z,-0.52
2023-01-18T03:27:26.457Z,-0.50
2023-01-18T03:37:38.687Z,-0.58
2023-01-18T03:47:40.932Z,-0.50
2023-01-18T03:57:55.857Z,-0.48
2023-01-18T04:07:57.980Z,-0.64
2023-01-18T04:18:00.172Z,-0.44
2023-01-18T04:28:06.986Z,-0.89
2023-01-18T04:38:09.106Z,-0.91
2023-01-18T04:48:11.221Z,-0.96
2023-01-18T04:58:13.792Z,-0.55
2023-01-18T05:08:15.908Z,-0.84
2023-01-18T05:18:18.036Z,-0.74
2023-01-18T05:28:20.613Z,-0.91
2023-01-18T05:38:23.510Z,-0.69
2023-01-18T05:48:25.940Z,-0.74
2023-01-18T05:58:28.795Z,-0.60
2023-01-18T06:08:30.977Z,-1.17
2023-01-18T06:18:33.689Z,-1.00
2023-01-18T06:28:35.896Z,-0.49
2023-01-18T06:38:38.168Z,-0.70
2023-01-18T06:48:40.260Z,-0.41
2023-01-18T06:58:44.788Z,-0.89
2023-01-18T07:08:48.621Z,-0.28
2023-01-18T07:18:50.919Z,-0.50
2023-01-18T07:28:56.121Z,0.02
2023-01-18T07:38:58.336Z,0.07
2023-01-18T07:49:02.381Z,0.70
2023-01-18T07:59:04.766Z,0.08
2023-01-18T08:09:07.001Z,0.43
2023-01-18T08:19:09.110Z,0.37
2023-01-18T08:29:11.406Z,0.38
2023-01-18T08:39:15.022Z,0.48
2023-01-18T08:49:17.275Z,0.73
2023-01-18T08:59:20.028Z,0.94
2023-01-18T09:09:22.410Z,1.17
2023-01-18T09:19:24.513Z,1.22
2023-01-18T09:29:26.684Z,1.33
2023-01-18T09:39:28.764Z,0.60
2023-01-18T09:49:43.205Z,0.94
2023-01-18T09:59:56.556Z,1.30
2023-01-18T10:10:00.382Z,1.40
2023-01-18T10:20:28.278Z,1.08
2023-01-18T10:30:41.706Z,1.55
2023-01-18T10:40:49.383Z,1.85
2023-01-18T10:51:24.317Z,1.64
2023-01-18T11:01:36.146Z,1.85
2023-01-18T11:11:57.116Z,1.29
2023-01-18T11:21:59.923Z,1.67
2023-01-18T11:32:06.072Z,1.56
2023-01-18T11:42:11.479Z,2.48
2023-01-18T11:52:33.552Z,2.15
2023-01-18T12:03:24.101Z,2.53
2023-01-18T12:13:50.637Z,2.46
2023-01-18T12:24:18.664Z,2.45
2023-01-18T12:34:32.179Z,2.57
2023-01-18T12:44:58.566Z,3.13
2023-01-18T12:55:04.417Z,3.00
2023-01-18T13:05:20.488Z,2.60
2023-01-18T13:15:35.775Z,3.44
2023-01-18T13:25:46.318Z,3.46
2023-01-18T13:35:51.639Z,3.39
2023-01-18T13:46:07.091Z,3.17
2023-01-18T13:56:22.107Z,2.96
2023-01-18T14:06:31.941Z,3.41
2023-01-18T14:16:35.822Z,3.25
2023-01-18T14:26:40.368Z,3.28
2023-01-18T14:36:43.364Z,3.20
2023-01-18T14:47:13.829Z,2.82
2023-01-18T14:57:25.908Z,2.74
2023-01-18T15:07:34.415Z,3.18
2023-01-18T15:17:37.302Z,2.87
2023-01-18T15:27:40.055Z,2.75
2023-01-18T15:37:44.841Z,2.82
2023-01-18T15:47:50.669Z,2.49
2023-01-18T15:58:05.609Z,2.67
2023-01-18T16:08:18.493Z,1.98
2023-01-18T16:18:21.683Z,2.03
2023-01-18T16:28:24.570Z,2.08
2023-01-18T16:38:29.019Z,2.43
2023-01-18T16:48:33.585Z,2.11
2023-01-18T16:58:36.945Z,1.79
2023-01-18T17:08:40.287Z,1.54
2023-01-18T17:18:43.038Z,1.71
2023-01-18T17:28:46.381Z,1.88
2023-01-18T17:38:48.628Z,1.72
2023-01-18T17:48:50.936Z,1.61
2023-01-18T17:58:54.572Z,1.57
2023-01-18T18:08:56.897Z,1.62
2023-01-18T18:19:00.553Z,1.49
2023-01-18T18:29:02.904Z,1.55
2023-01-18T18:39:08.710Z,1.40
2023-01-18T18:49:11.044Z,1.12
2023-01-18T18:59:13.326Z,1.38
2023-01-18T19:09:15.644Z,1.28
2023-01-18T19:19:17.745Z,1.53
2023-01-18T19:29:20.215Z,1.50
2023-01-18T19:39:23.649Z,1.23
2023-01-18T19:49:26.142Z,1.41
2023-01-18T19:59:29.671Z,1.56
2023-01-18T20:09:42.893Z,1.20
2023-01-18T20:19:47.084Z,1.57
2023-01-18T20:29:49.446Z,1.30
2023-01-18T20:39:51.964Z,1.12
2023-01-18T20:49:55.342Z,1.26
2023-01-18T20:59:58.096Z,1.64
2023-01-18T21:10:02.504Z,1.81
2023-01-18T21:20:07.798Z,1.70
2023-01-18T21:30:11.297Z,2.20
2023-01-18T21:40:13.626Z,1.67
2023-01-18T21:50:34.896Z,1.78
2023-01-18T22:00:38.232Z,2.00
2023-01-18T22:10:40.355Z,1.79
2023-01-18T22:20:42.633Z,2.00
2023-01-18T22:30:46.393Z,2.38
2023-01-18T22:40:49.714Z,2.40
2023-01-18T22:50:56.446Z,2.01
2023-01-18T23:00:59.935Z,2.06
2023-01-18T23:11:02.238Z,1.38
2023-01-18T23:21:04.729Z,2.03
2023-01-18T23:31:11.687Z,2.01
2023-01-18T23:41:32.631Z,1.91
2023-01-18T23:51:53.371Z,1.95
